sensor_id;sensor_type;location;lat;lon;timestamp;temperature;humidity
5960;DHT22;3006;50.956;7.002;2022-10-03T00:01:37;12.80;99.90
5960;DHT22;3006;50.956;7.002;2022-10-03T00:07:16;12.80;99.90
5960;DHT22;3006;50.956;7.002;2022-10-03T00:09:58;12.80;99.90
5960;DHT22;3006;50.956;7.002;2022-10-03T00:12:40;12.70;99.90
5960;DHT22;3006;50.956;7.002;2022-10-03T00:15:17;12.70;99.90
5960;DHT22;3006;50.956;7.002;2022-10-03T00:17:56;12.70;99.90
5960;DHT22;3006;50.956;7.002;2022-10-03T00:20:41;12.70;99.90
5960;DHT22;3006;50.956;7.002;2022-10-03T00:23:18;12.70;99.90
5960;DHT22;3006;50.956;7.002;2022-10-03T00:25:53;12.60;99.90
5960;DHT22;3006;50.956;7.002;2022-10-03T00:28:40;12.60;99.90
5960;DHT22;3006;50.956;7.002;2022-10-03T00:31:15;12.60;99.90
5960;DHT22;3006;50.956;7.002;2022-10-03T00:33:53;12.60;99.90
5960;DHT22;3006;50.956;7.002;2022-10-03T00:36:40;12.50;99.90
5960;DHT22;3006;50.956;7.002;2022-10-03T00:42:35;12.60;99.90
5960;DHT22;3006;50.956;7.002;2022-10-03T00:52:08;12.50;99.90
5960;DHT22;3006;50.956;7.002;2022-10-03T00:54:48;12.50;99.90
5960;DHT22;3006;50.956;7.002;2022-10-03T00:57:28;12.50;99.90
5960;DHT22;3006;50.956;7.002;2022-10-03T01:00:14;12.40;99.90
5960;DHT22;3006;50.956;7.002;2022-10-03T01:02:59;12.50;99.90
5960;DHT22;3006;50.956;7.002;2022-10-03T01:05:42;12.50;99.90
5960;DHT22;3006;50.956;7.002;2022-10-03T01:08:39;12.40;99.90
5960;DHT22;3006;50.956;7.002;2022-10-03T01:11:22;12.40;99.90
5960;DHT22;3006;50.956;7.002;2022-10-03T01:14:02;12.30;99.90
5960;DHT22;3006;50.956;7.002;2022-10-03T01:16:38;12.30;99.90
5960;DHT22;3006;50.956;7.002;2022-10-03T01:19:27;12.30;99.90
5960;DHT22;3006;50.956;7.002;2022-10-03T01:22:12;12.20;99.90
5960;DHT22;3006;50.956;7.002;2022-10-03T01:24:51;12.20;99.90
5960;DHT22;3006;50.956;7.002;2022-10-03T01:27:29;12.10;99.90
5960;DHT22;3006;50.956;7.002;2022-10-03T01:30:03;12.00;99.90
5960;DHT22;3006;50.956;7.002;2022-10-03T01:32:54;12.10;99.90
5960;DHT22;3006;50.956;7.002;2022-10-03T01:35:30;12.00;99.90
5960;DHT22;3006;50.956;7.002;2022-10-03T01:38:13;12.00;99.90
5960;DHT22;3006;50.956;7.002;2022-10-03T01:40:52;12.00;99.90
5960;DHT22;3006;50.956;7.002;2022-10-03T01:43:33;12.00;99.90
5960;DHT22;3006;50.956;7.002;2022-10-03T01:46:11;12.00;99.90
5960;DHT22;3006;50.956;7.002;2022-10-03T01:48:50;12.00;99.90
5960;DHT22;3006;50.956;7.002;2022-10-03T01:51:23;12.00;99.90
5960;DHT22;3006;50.956;7.002;2022-10-03T01:54:07;11.90;99.90
5960;DHT22;3006;50.956;7.002;2022-10-03T01:56:44;11.90;99.90
5960;DHT22;3006;50.956;7.002;2022-10-03T01:59:17;11.90;99.90
5960;DHT22;3006;50.956;7.002;2022-10-03T02:01:51;11.90;99.90
5960;DHT22;3006;50.956;7.002;2022-10-03T02:04:31;11.80;99.90
5960;DHT22;3006;50.956;7.002;2022-10-03T02:07:07;11.80;99.90
5960;DHT22;3006;50.956;7.002;2022-10-03T02:09:52;11.70;99.90
5960;DHT22;3006;50.956;7.002;2022-10-03T02:12:28;11.70;99.90
5960;DHT22;3006;50.956;7.002;2022-10-03T02:15:07;11.70;99.90
5960;DHT22;3006;50.956;7.002;2022-10-03T02:17:51;11.70;99.90
5960;DHT22;3006;50.956;7.002;2022-10-03T02:20:27;11.60;99.90
5960;DHT22;3006;50.956;7.002;2022-10-03T02:22:58;11.50;99.90
5960;DHT22;3006;50.956;7.002;2022-10-03T02:25:42;11.50;99.90
5960;DHT22;3006;50.956;7.002;2022-10-03T02:28:34;11.50;99.90
5960;DHT22;3006;50.956;7.002;2022-10-03T02:31:40;11.50;99.90
5960;DHT22;3006;50.956;7.002;2022-10-03T02:34:24;11.40;99.90
5960;DHT22;3006;50.956;7.002;2022-10-03T02:56:26;11.30;99.90
5960;DHT22;3006;50.956;7.002;2022-10-03T03:08:31;11.20;99.90
5960;DHT22;3006;50.956;7.002;2022-10-03T03:11:18;11.10;99.90
5960;DHT22;3006;50.956;7.002;2022-10-03T03:14:11;11.10;99.90
5960;DHT22;3006;50.956;7.002;2022-10-03T03:16:54;11.00;99.90
5960;DHT22;3006;50.956;7.002;2022-10-03T03:19:43;11.00;99.90
5960;DHT22;3006;50.956;7.002;2022-10-03T03:22:27;11.00;99.90
5960;DHT22;3006;50.956;7.002;2022-10-03T03:25:12;11.00;99.90
5960;DHT22;3006;50.956;7.002;2022-10-03T03:27:50;11.10;99.90
5960;DHT22;3006;50.956;7.002;2022-10-03T03:30:30;11.10;99.90
5960;DHT22;3006;50.956;7.002;2022-10-03T03:33:09;11.10;99.90
5960;DHT22;3006;50.956;7.002;2022-10-03T03:35:51;11.10;99.90
5960;DHT22;3006;50.956;7.002;2022-10-03T03:38:28;11.10;99.90
5960;DHT22;3006;50.956;7.002;2022-10-03T03:41:13;11.20;99.90
5960;DHT22;3006;50.956;7.002;2022-10-03T03:46:43;11.20;99.90
5960;DHT22;3006;50.956;7.002;2022-10-03T03:49:30;11.20;99.90
5960;DHT22;3006;50.956;7.002;2022-10-03T03:52:13;11.20;99.90
5960;DHT22;3006;50.956;7.002;2022-10-03T03:55:10;11.20;99.90
5960;DHT22;3006;50.956;7.002;2022-10-03T04:00:53;11.10;99.90
5960;DHT22;3006;50.956;7.002;2022-10-03T04:03:40;11.10;99.90
5960;DHT22;3006;50.956;7.002;2022-10-03T04:06:24;11.10;99.90
5960;DHT22;3006;50.956;7.002;2022-10-03T04:09:13;11.00;99.90
5960;DHT22;3006;50.956;7.002;2022-10-03T04:11:55;11.00;99.90
5960;DHT22;3006;50.956;7.002;2022-10-03T04:17:40;11.00;99.90
5960;DHT22;3006;50.956;7.002;2022-10-03T04:20:46;11.00;99.90
5960;DHT22;3006;50.956;7.002;2022-10-03T04:23:27;11.00;99.90
5960;DHT22;3006;50.956;7.002;2022-10-03T04:26:10;11.00;99.90
5960;DHT22;3006;50.956;7.002;2022-10-03T04:28:57;10.90;99.90
5960;DHT22;3006;50.956;7.002;2022-10-03T04:31:39;11.00;99.90
5960;DHT22;3006;50.956;7.002;2022-10-03T04:34:26;11.00;99.90
5960;DHT22;3006;50.956;7.002;2022-10-03T04:37:11;11.10;99.90
5960;DHT22;3006;50.956;7.002;2022-10-03T04:39:49;11.10;99.90
5960;DHT22;3006;50.956;7.002;2022-10-03T04:42:37;11.10;99.90
5960;DHT22;3006;50.956;7.002;2022-10-03T04:45:18;11.10;99.90
5960;DHT22;3006;50.956;7.002;2022-10-03T04:48:00;11.10;99.90
5960;DHT22;3006;50.956;7.002;2022-10-03T04:50:37;11.10;99.90
5960;DHT22;3006;50.956;7.002;2022-10-03T04:53:18;11.10;99.90
5960;DHT22;3006;50.956;7.002;2022-10-03T04:55:52;11.10;99.90
5960;DHT22;3006;50.956;7.002;2022-10-03T04:58:31;11.10;99.90
5960;DHT22;3006;50.956;7.002;2022-10-03T05:01:11;11.20;99.90
5960;DHT22;3006;50.956;7.002;2022-10-03T05:03:48;11.10;99.90
5960;DHT22;3006;50.956;7.002;2022-10-03T05:06:28;11.10;99.90
5960;DHT22;3006;50.956;7.002;2022-10-03T05:09:16;11.00;99.90
5960;DHT22;3006;50.956;7.002;2022-10-03T05:11:57;10.90;99.90
5960;DHT22;3006;50.956;7.002;2022-10-03T05:17:21;10.80;99.90
5960;DHT22;3006;50.956;7.002;2022-10-03T05:20:16;10.80;99.90
5960;DHT22;3006;50.956;7.002;2022-10-03T05:22:53;10.80;99.90
5960;DHT22;3006;50.956;7.002;2022-10-03T05:25:37;10.80;99.90
5960;DHT22;3006;50.956;7.002;2022-10-03T05:28:19;10.80;99.90
5960;DHT22;3006;50.956;7.002;2022-10-03T05:30:52;10.80;99.90
5960;DHT22;3006;50.956;7.002;2022-10-03T05:33:28;10.70;99.90
5960;DHT22;3006;50.956;7.002;2022-10-03T05:36:08;10.60;99.90
5960;DHT22;3006;50.956;7.002;2022-10-03T05:38:58;10.60;99.90
5960;DHT22;3006;50.956;7.002;2022-10-03T05:41:31;10.60;99.90
5960;DHT22;3006;50.956;7.002;2022-10-03T05:44:04;10.70;99.90
5960;DHT22;3006;50.956;7.002;2022-10-03T05:46:40;10.70;99.90
5960;DHT22;3006;50.956;7.002;2022-10-03T05:49:39;10.80;99.90
5960;DHT22;3006;50.956;7.002;2022-10-03T05:52:22;10.80;99.90
5960;DHT22;3006;50.956;7.002;2022-10-03T05:55:11;10.70;99.90
5960;DHT22;3006;50.956;7.002;2022-10-03T05:58:23;10.70;99.90
5960;DHT22;3006;50.956;7.002;2022-10-03T06:07:00;10.80;99.90
5960;DHT22;3006;50.956;7.002;2022-10-03T06:09:50;10.80;99.90
5960;DHT22;3006;50.956;7.002;2022-10-03T06:12:29;10.80;99.90
5960;DHT22;3006;50.956;7.002;2022-10-03T06:15:21;10.80;99.90
5960;DHT22;3006;50.956;7.002;2022-10-03T06:18:01;10.80;99.90
5960;DHT22;3006;50.956;7.002;2022-10-03T06:21:01;10.90;99.90
5960;DHT22;3006;50.956;7.002;2022-10-03T06:24:04;10.80;99.90
5960;DHT22;3006;50.956;7.002;2022-10-03T06:27:17;10.90;99.90
5960;DHT22;3006;50.956;7.002;2022-10-03T06:30:09;10.90;99.90
5960;DHT22;3006;50.956;7.002;2022-10-03T06:33:14;10.90;99.90
5960;DHT22;3006;50.956;7.002;2022-10-03T06:36:13;10.90;99.90
5960;DHT22;3006;50.956;7.002;2022-10-03T06:45:38;10.90;99.90
5960;DHT22;3006;50.956;7.002;2022-10-03T06:48:33;10.90;99.90
5960;DHT22;3006;50.956;7.002;2022-10-03T06:51:32;11.00;99.90
5960;DHT22;3006;50.956;7.002;2022-10-03T06:57:30;11.10;99.90
5960;DHT22;3006;50.956;7.002;2022-10-03T07:00:14;11.00;99.90
5960;DHT22;3006;50.956;7.002;2022-10-03T07:03:13;11.00;99.90
5960;DHT22;3006;50.956;7.002;2022-10-03T07:06:12;11.10;99.90
5960;DHT22;3006;50.956;7.002;2022-10-03T07:12:35;11.10;99.90
5960;DHT22;3006;50.956;7.002;2022-10-03T07:15:51;11.20;99.90
5960;DHT22;3006;50.956;7.002;2022-10-03T07:22:28;11.40;99.90
5960;DHT22;3006;50.956;7.002;2022-10-03T07:31:26;11.70;99.90
5960;DHT22;3006;50.956;7.002;2022-10-03T07:37:17;11.80;99.90
5960;DHT22;3006;50.956;7.002;2022-10-03T07:40:34;11.90;99.90
5960;DHT22;3006;50.956;7.002;2022-10-03T07:46:45;12.00;99.90
5960;DHT22;3006;50.956;7.002;2022-10-03T07:52:37;12.30;99.90
5960;DHT22;3006;50.956;7.002;2022-10-03T07:55:34;12.40;99.90
5960;DHT22;3006;50.956;7.002;2022-10-03T08:01:42;12.60;99.90
5960;DHT22;3006;50.956;7.002;2022-10-03T08:04:58;12.70;99.90
5960;DHT22;3006;50.956;7.002;2022-10-03T08:07:58;12.70;99.90
5960;DHT22;3006;50.956;7.002;2022-10-03T08:10:55;12.80;99.90
5960;DHT22;3006;50.956;7.002;2022-10-03T08:13:38;12.70;99.90
5960;DHT22;3006;50.956;7.002;2022-10-03T08:16:23;12.80;99.90
5960;DHT22;3006;50.956;7.002;2022-10-03T08:19:07;12.90;99.90
5960;DHT22;3006;50.956;7.002;2022-10-03T08:21:57;13.00;99.90
5960;DHT22;3006;50.956;7.002;2022-10-03T08:25:06;13.00;99.90
5960;DHT22;3006;50.956;7.002;2022-10-03T08:27:50;13.10;99.90
5960;DHT22;3006;50.956;7.002;2022-10-03T08:30:23;13.00;99.90
5960;DHT22;3006;50.956;7.002;2022-10-03T08:33:30;13.00;99.90
5960;DHT22;3006;50.956;7.002;2022-10-03T08:39:18;13.40;99.90
5960;DHT22;3006;50.956;7.002;2022-10-03T08:45:49;13.70;99.90
5960;DHT22;3006;50.956;7.002;2022-10-03T08:48:43;13.80;99.90
5960;DHT22;3006;50.956;7.002;2022-10-03T08:51:48;13.90;99.90
5960;DHT22;3006;50.956;7.002;2022-10-03T08:57:37;14.10;99.90
5960;DHT22;3006;50.956;7.002;2022-10-03T09:00:15;14.10;99.90
5960;DHT22;3006;50.956;7.002;2022-10-03T09:06:30;14.10;99.90
5960;DHT22;3006;50.956;7.002;2022-10-03T09:12:49;14.20;99.90
5960;DHT22;3006;50.956;7.002;2022-10-03T09:15:45;14.30;99.90
5960;DHT22;3006;50.956;7.002;2022-10-03T09:18:34;14.40;99.90
5960;DHT22;3006;50.956;7.002;2022-10-03T09:21:36;14.50;99.90
5960;DHT22;3006;50.956;7.002;2022-10-03T09:27:28;14.70;99.90
5960;DHT22;3006;50.956;7.002;2022-10-03T09:30:14;14.80;99.90
5960;DHT22;3006;50.956;7.002;2022-10-03T09:36:14;14.70;99.90
5960;DHT22;3006;50.956;7.002;2022-10-03T09:39:14;14.70;99.90
5960;DHT22;3006;50.956;7.002;2022-10-03T09:42:26;14.80;99.90
5960;DHT22;3006;50.956;7.002;2022-10-03T09:45:24;14.90;99.90
5960;DHT22;3006;50.956;7.002;2022-10-03T09:48:27;15.00;99.90
5960;DHT22;3006;50.956;7.002;2022-10-03T09:51:16;15.00;99.90
5960;DHT22;3006;50.956;7.002;2022-10-03T09:54:11;15.10;99.90
5960;DHT22;3006;50.956;7.002;2022-10-03T09:57:12;15.10;99.90
5960;DHT22;3006;50.956;7.002;2022-10-03T10:00:01;14.90;99.90
5960;DHT22;3006;50.956;7.002;2022-10-03T10:02:56;15.00;99.90
5960;DHT22;3006;50.956;7.002;2022-10-03T10:06:02;15.10;99.90
5960;DHT22;3006;50.956;7.002;2022-10-03T10:08:47;15.20;99.90
5960;DHT22;3006;50.956;7.002;2022-10-03T10:11:33;15.20;99.90
5960;DHT22;3006;50.956;7.002;2022-10-03T10:21:17;15.30;99.90
5960;DHT22;3006;50.956;7.002;2022-10-03T10:23:56;15.30;99.90
5960;DHT22;3006;50.956;7.002;2022-10-03T10:26:49;15.30;99.90
5960;DHT22;3006;50.956;7.002;2022-10-03T10:29:42;15.30;99.90
5960;DHT22;3006;50.956;7.002;2022-10-03T10:32:45;15.40;99.90
5960;DHT22;3006;50.956;7.002;2022-10-03T10:42:05;15.70;99.90
5960;DHT22;3006;50.956;7.002;2022-10-03T10:45:21;15.90;99.90
5960;DHT22;3006;50.956;7.002;2022-10-03T10:48:30;16.20;99.90
5960;DHT22;3006;50.956;7.002;2022-10-03T10:57:57;16.30;99.90
5960;DHT22;3006;50.956;7.002;2022-10-03T11:00:47;16.40;99.90
5960;DHT22;3006;50.956;7.002;2022-10-03T11:03:58;16.20;99.90
5960;DHT22;3006;50.956;7.002;2022-10-03T11:10:21;16.10;99.90
5960;DHT22;3006;50.956;7.002;2022-10-03T11:26:34;16.10;99.90
5960;DHT22;3006;50.956;7.002;2022-10-03T11:29:38;16.30;99.90
5960;DHT22;3006;50.956;7.002;2022-10-03T11:35:51;16.60;99.90
5960;DHT22;3006;50.956;7.002;2022-10-03T11:38:28;16.70;99.90
5960;DHT22;3006;50.956;7.002;2022-10-03T11:41:02;16.60;99.90
5960;DHT22;3006;50.956;7.002;2022-10-03T11:46:49;16.90;99.90
5960;DHT22;3006;50.956;7.002;2022-10-03T11:49:33;16.90;99.90
5960;DHT22;3006;50.956;7.002;2022-10-03T11:52:17;17.10;99.90
5960;DHT22;3006;50.956;7.002;2022-10-03T11:55:06;17.20;99.90
5960;DHT22;3006;50.956;7.002;2022-10-03T11:57:44;17.30;99.90
5960;DHT22;3006;50.956;7.002;2022-10-03T12:00:15;17.20;99.90
5960;DHT22;3006;50.956;7.002;2022-10-03T12:03:01;17.40;99.90
5960;DHT22;3006;50.956;7.002;2022-10-03T12:05:45;17.50;99.90
5960;DHT22;3006;50.956;7.002;2022-10-03T12:08:23;17.60;99.90
5960;DHT22;3006;50.956;7.002;2022-10-03T12:11:17;17.70;99.90
5960;DHT22;3006;50.956;7.002;2022-10-03T12:13:57;17.70;99.90
5960;DHT22;3006;50.956;7.002;2022-10-03T12:16:53;17.70;99.90
5960;DHT22;3006;50.956;7.002;2022-10-03T12:19:29;17.70;99.90
5960;DHT22;3006;50.956;7.002;2022-10-03T12:22:07;17.50;99.90
5960;DHT22;3006;50.956;7.002;2022-10-03T12:24:41;17.50;99.90
5960;DHT22;3006;50.956;7.002;2022-10-03T12:27:17;17.40;99.90
5960;DHT22;3006;50.956;7.002;2022-10-03T12:29:54;17.30;99.90
5960;DHT22;3006;50.956;7.002;2022-10-03T12:32:45;17.30;99.90
5960;DHT22;3006;50.956;7.002;2022-10-03T12:35:33;17.30;99.90
5960;DHT22;3006;50.956;7.002;2022-10-03T12:38:14;17.40;99.90
5960;DHT22;3006;50.956;7.002;2022-10-03T12:40:50;17.40;99.90
5960;DHT22;3006;50.956;7.002;2022-10-03T12:43:33;17.30;99.90
5960;DHT22;3006;50.956;7.002;2022-10-03T12:46:12;17.30;99.90
5960;DHT22;3006;50.956;7.002;2022-10-03T12:48:45;17.40;99.90
5960;DHT22;3006;50.956;7.002;2022-10-03T12:51:27;17.40;99.90
5960;DHT22;3006;50.956;7.002;2022-10-03T12:54:05;17.50;99.90
5960;DHT22;3006;50.956;7.002;2022-10-03T12:56:42;17.70;99.90
5960;DHT22;3006;50.956;7.002;2022-10-03T12:59:17;17.60;99.90
5960;DHT22;3006;50.956;7.002;2022-10-03T13:02:19;17.50;99.90
5960;DHT22;3006;50.956;7.002;2022-10-03T13:05:02;17.40;99.90
5960;DHT22;3006;50.956;7.002;2022-10-03T13:07:42;17.30;99.90
5960;DHT22;3006;50.956;7.002;2022-10-03T13:10:25;17.20;99.90
5960;DHT22;3006;50.956;7.002;2022-10-03T13:13:05;17.10;99.90
5960;DHT22;3006;50.956;7.002;2022-10-03T13:15:48;17.00;99.90
5960;DHT22;3006;50.956;7.002;2022-10-03T13:18:29;17.00;99.90
5960;DHT22;3006;50.956;7.002;2022-10-03T13:21:04;17.10;99.90
5960;DHT22;3006;50.956;7.002;2022-10-03T13:23:58;17.00;99.90
5960;DHT22;3006;50.956;7.002;2022-10-03T13:26:41;17.20;99.90
5960;DHT22;3006;50.956;7.002;2022-10-03T13:29:29;17.20;99.90
5960;DHT22;3006;50.956;7.002;2022-10-03T13:32:14;17.20;99.90
5960;DHT22;3006;50.956;7.002;2022-10-03T13:38:49;17.30;99.90
5960;DHT22;3006;50.956;7.002;2022-10-03T13:41:44;17.40;99.90
5960;DHT22;3006;50.956;7.002;2022-10-03T13:44:20;17.50;99.90
5960;DHT22;3006;50.956;7.002;2022-10-03T13:46:55;17.40;99.90
5960;DHT22;3006;50.956;7.002;2022-10-03T13:49:27;17.40;99.90
5960;DHT22;3006;50.956;7.002;2022-10-03T13:52:05;17.30;99.90
5960;DHT22;3006;50.956;7.002;2022-10-03T13:54:59;17.30;99.90
5960;DHT22;3006;50.956;7.002;2022-10-03T13:57:37;17.20;99.90
5960;DHT22;3006;50.956;7.002;2022-10-03T14:00:09;17.20;99.90
5960;DHT22;3006;50.956;7.002;2022-10-03T14:03:03;17.20;99.90
5960;DHT22;3006;50.956;7.002;2022-10-03T14:05:56;17.10;99.90
5960;DHT22;3006;50.956;7.002;2022-10-03T14:08:51;17.10;99.90
5960;DHT22;3006;50.956;7.002;2022-10-03T14:11:24;17.10;99.90
5960;DHT22;3006;50.956;7.002;2022-10-03T14:14:12;17.10;99.90
5960;DHT22;3006;50.956;7.002;2022-10-03T14:16:51;17.10;99.90
5960;DHT22;3006;50.956;7.002;2022-10-03T14:19:30;17.10;99.90
5960;DHT22;3006;50.956;7.002;2022-10-03T14:22:17;17.20;99.90
5960;DHT22;3006;50.956;7.002;2022-10-03T14:25:02;17.20;99.90
5960;DHT22;3006;50.956;7.002;2022-10-03T14:27:47;17.30;99.90
5960;DHT22;3006;50.956;7.002;2022-10-03T14:30:19;17.30;99.90
5960;DHT22;3006;50.956;7.002;2022-10-03T14:35:52;17.30;99.90
5960;DHT22;3006;50.956;7.002;2022-10-03T14:38:32;17.40;99.90
5960;DHT22;3006;50.956;7.002;2022-10-03T14:41:23;17.30;99.90
5960;DHT22;3006;50.956;7.002;2022-10-03T14:43:55;17.30;99.90
5960;DHT22;3006;50.956;7.002;2022-10-03T14:46:30;17.20;99.90
5960;DHT22;3006;50.956;7.002;2022-10-03T14:49:01;17.20;99.90
5960;DHT22;3006;50.956;7.002;2022-10-03T14:51:35;17.20;99.90
5960;DHT22;3006;50.956;7.002;2022-10-03T14:54:07;17.30;99.90
5960;DHT22;3006;50.956;7.002;2022-10-03T14:56:44;17.30;99.90
5960;DHT22;3006;50.956;7.002;2022-10-03T14:59:18;17.30;99.90
5960;DHT22;3006;50.956;7.002;2022-10-03T15:01:51;17.30;99.90
5960;DHT22;3006;50.956;7.002;2022-10-03T15:04:26;17.40;99.90
5960;DHT22;3006;50.956;7.002;2022-10-03T15:06:56;17.40;99.90
5960;DHT22;3006;50.956;7.002;2022-10-03T15:09:33;17.40;99.90
5960;DHT22;3006;50.956;7.002;2022-10-03T15:12:12;17.40;99.90
5960;DHT22;3006;50.956;7.002;2022-10-03T15:14:45;17.30;99.90
5960;DHT22;3006;50.956;7.002;2022-10-03T15:17:19;17.30;99.90
5960;DHT22;3006;50.956;7.002;2022-10-03T15:19:50;17.30;99.90
5960;DHT22;3006;50.956;7.002;2022-10-03T15:22:31;17.30;99.90
5960;DHT22;3006;50.956;7.002;2022-10-03T15:25:06;17.30;99.90
5960;DHT22;3006;50.956;7.002;2022-10-03T15:27:39;17.30;99.90
5960;DHT22;3006;50.956;7.002;2022-10-03T15:30:18;17.30;99.90
5960;DHT22;3006;50.956;7.002;2022-10-03T15:32:50;17.20;99.90
5960;DHT22;3006;50.956;7.002;2022-10-03T15:35:23;17.20;99.90
5960;DHT22;3006;50.956;7.002;2022-10-03T15:37:53;17.20;99.90
5960;DHT22;3006;50.956;7.002;2022-10-03T15:40:29;17.20;99.90
5960;DHT22;3006;50.956;7.002;2022-10-03T15:43:03;17.20;99.90
5960;DHT22;3006;50.956;7.002;2022-10-03T15:45:34;17.30;99.90
5960;DHT22;3006;50.956;7.002;2022-10-03T15:48:10;17.30;99.90
5960;DHT22;3006;50.956;7.002;2022-10-03T15:50:40;17.30;99.90
5960;DHT22;3006;50.956;7.002;2022-10-03T15:53:14;17.20;99.90
5960;DHT22;3006;50.956;7.002;2022-10-03T15:56:09;17.30;99.90
5960;DHT22;3006;50.956;7.002;2022-10-03T15:58:45;17.30;99.90
5960;DHT22;3006;50.956;7.002;2022-10-03T16:01:18;17.30;99.90
5960;DHT22;3006;50.956;7.002;2022-10-03T16:03:51;17.30;99.90
5960;DHT22;3006;50.956;7.002;2022-10-03T16:06:23;17.40;99.90
5960;DHT22;3006;50.956;7.002;2022-10-03T16:08:57;17.40;99.90
5960;DHT22;3006;50.956;7.002;2022-10-03T16:11:28;17.40;99.90
5960;DHT22;3006;50.956;7.002;2022-10-03T16:14:14;17.30;99.90
5960;DHT22;3006;50.956;7.002;2022-10-03T16:16:47;17.30;99.90
5960;DHT22;3006;50.956;7.002;2022-10-03T16:19:26;17.30;99.90
5960;DHT22;3006;50.956;7.002;2022-10-03T16:22:07;17.20;99.90
5960;DHT22;3006;50.956;7.002;2022-10-03T16:24:41;17.20;99.90
5960;DHT22;3006;50.956;7.002;2022-10-03T16:27:15;17.10;99.90
5960;DHT22;3006;50.956;7.002;2022-10-03T16:29:51;17.20;99.90
5960;DHT22;3006;50.956;7.002;2022-10-03T16:32:23;17.30;99.90
5960;DHT22;3006;50.956;7.002;2022-10-03T16:34:57;17.40;99.90
5960;DHT22;3006;50.956;7.002;2022-10-03T16:37:27;17.50;99.90
5960;DHT22;3006;50.956;7.002;2022-10-03T16:39:59;17.50;99.90
5960;DHT22;3006;50.956;7.002;2022-10-03T16:42:37;17.60;99.90
5960;DHT22;3006;50.956;7.002;2022-10-03T16:45:19;17.60;99.90
5960;DHT22;3006;50.956;7.002;2022-10-03T16:47:49;17.50;99.90
5960;DHT22;3006;50.956;7.002;2022-10-03T16:50:43;17.50;99.90
5960;DHT22;3006;50.956;7.002;2022-10-03T16:53:13;17.40;99.90
5960;DHT22;3006;50.956;7.002;2022-10-03T16:55:45;17.40;99.90
5960;DHT22;3006;50.956;7.002;2022-10-03T16:58:18;17.40;99.90
5960;DHT22;3006;50.956;7.002;2022-10-03T17:00:55;17.30;99.90
5960;DHT22;3006;50.956;7.002;2022-10-03T17:03:47;17.00;99.90
5960;DHT22;3006;50.956;7.002;2022-10-03T17:06:22;16.80;99.90
5960;DHT22;3006;50.956;7.002;2022-10-03T17:08:54;16.60;99.90
5960;DHT22;3006;50.956;7.002;2022-10-03T17:11:25;16.40;99.90
5960;DHT22;3006;50.956;7.002;2022-10-03T17:13:56;16.20;99.90
5960;DHT22;3006;50.956;7.002;2022-10-03T17:16:33;16.10;99.90
5960;DHT22;3006;50.956;7.002;2022-10-03T17:19:17;16.00;99.90
5960;DHT22;3006;50.956;7.002;2022-10-03T17:21:50;15.90;99.90
5960;DHT22;3006;50.956;7.002;2022-10-03T17:24:29;15.80;99.90
5960;DHT22;3006;50.956;7.002;2022-10-03T17:27:01;15.70;99.90
5960;DHT22;3006;50.956;7.002;2022-10-03T17:29:36;15.60;99.90
5960;DHT22;3006;50.956;7.002;2022-10-03T17:32:16;15.60;99.90
5960;DHT22;3006;50.956;7.002;2022-10-03T17:34:52;15.60;99.90
5960;DHT22;3006;50.956;7.002;2022-10-03T17:37:55;15.50;99.90
5960;DHT22;3006;50.956;7.002;2022-10-03T17:40:55;15.50;99.90
5960;DHT22;3006;50.956;7.002;2022-10-03T17:43:33;15.50;99.90
5960;DHT22;3006;50.956;7.002;2022-10-03T17:46:06;15.40;99.90
5960;DHT22;3006;50.956;7.002;2022-10-03T17:48:43;15.40;99.90
5960;DHT22;3006;50.956;7.002;2022-10-03T17:51:26;15.40;99.90
5960;DHT22;3006;50.956;7.002;2022-10-03T17:53:58;15.30;99.90
5960;DHT22;3006;50.956;7.002;2022-10-03T17:56:28;15.30;99.90
5960;DHT22;3006;50.956;7.002;2022-10-03T17:59:02;15.30;99.90
5960;DHT22;3006;50.956;7.002;2022-10-03T18:01:35;15.30;99.90
5960;DHT22;3006;50.956;7.002;2022-10-03T18:04:13;15.50;99.90
5960;DHT22;3006;50.956;7.002;2022-10-03T18:06:45;15.60;99.90
5960;DHT22;3006;50.956;7.002;2022-10-03T18:09:26;15.60;99.90
5960;DHT22;3006;50.956;7.002;2022-10-03T18:12:03;15.50;99.90
5960;DHT22;3006;50.956;7.002;2022-10-03T18:14:44;15.40;99.90
5960;DHT22;3006;50.956;7.002;2022-10-03T18:17:15;15.30;99.90
5960;DHT22;3006;50.956;7.002;2022-10-03T18:19:56;15.30;99.90
5960;DHT22;3006;50.956;7.002;2022-10-03T18:22:32;15.20;99.90
5960;DHT22;3006;50.956;7.002;2022-10-03T18:25:12;15.10;99.90
5960;DHT22;3006;50.956;7.002;2022-10-03T18:28:09;15.10;99.90
5960;DHT22;3006;50.956;7.002;2022-10-03T18:30:45;15.10;99.90
5960;DHT22;3006;50.956;7.002;2022-10-03T18:33:20;15.00;99.90
5960;DHT22;3006;50.956;7.002;2022-10-03T18:35:50;14.90;99.90
5960;DHT22;3006;50.956;7.002;2022-10-03T18:38:21;14.90;99.90
5960;DHT22;3006;50.956;7.002;2022-10-03T18:40:54;14.90;99.90
5960;DHT22;3006;50.956;7.002;2022-10-03T18:43:30;14.80;99.90
5960;DHT22;3006;50.956;7.002;2022-10-03T18:46:05;14.80;99.90
5960;DHT22;3006;50.956;7.002;2022-10-03T18:48:43;14.70;99.90
5960;DHT22;3006;50.956;7.002;2022-10-03T18:51:35;14.60;99.90
5960;DHT22;3006;50.956;7.002;2022-10-03T18:54:13;14.60;99.90
5960;DHT22;3006;50.956;7.002;2022-10-03T18:57:02;14.60;99.90
5960;DHT22;3006;50.956;7.002;2022-10-03T18:59:36;14.50;99.90
5960;DHT22;3006;50.956;7.002;2022-10-03T19:02:17;14.50;99.90
5960;DHT22;3006;50.956;7.002;2022-10-03T19:04:51;14.50;99.90
5960;DHT22;3006;50.956;7.002;2022-10-03T19:07:23;14.50;99.90
5960;DHT22;3006;50.956;7.002;2022-10-03T19:10:13;14.50;99.90
5960;DHT22;3006;50.956;7.002;2022-10-03T19:12:53;14.50;99.90
5960;DHT22;3006;50.956;7.002;2022-10-03T19:15:34;14.50;99.90
5960;DHT22;3006;50.956;7.002;2022-10-03T19:18:16;14.50;99.90
5960;DHT22;3006;50.956;7.002;2022-10-03T19:20:49;14.40;99.90
5960;DHT22;3006;50.956;7.002;2022-10-03T19:23:21;14.40;99.90
5960;DHT22;3006;50.956;7.002;2022-10-03T19:25:53;14.40;99.90
5960;DHT22;3006;50.956;7.002;2022-10-03T19:28:27;14.30;99.90
5960;DHT22;3006;50.956;7.002;2022-10-03T19:30:59;14.40;99.90
5960;DHT22;3006;50.956;7.002;2022-10-03T19:33:32;14.40;99.90
5960;DHT22;3006;50.956;7.002;2022-10-03T19:36:03;14.40;99.90
5960;DHT22;3006;50.956;7.002;2022-10-03T19:38:35;14.40;99.90
5960;DHT22;3006;50.956;7.002;2022-10-03T19:41:14;14.30;99.90
5960;DHT22;3006;50.956;7.002;2022-10-03T19:43:47;14.30;99.90
5960;DHT22;3006;50.956;7.002;2022-10-03T19:46:27;14.30;99.90
5960;DHT22;3006;50.956;7.002;2022-10-03T19:49:22;14.30;99.90
5960;DHT22;3006;50.956;7.002;2022-10-03T19:52:09;14.30;99.90
5960;DHT22;3006;50.956;7.002;2022-10-03T19:54:44;14.20;99.90
5960;DHT22;3006;50.956;7.002;2022-10-03T19:57:16;14.20;99.90
5960;DHT22;3006;50.956;7.002;2022-10-03T19:59:50;14.20;99.90
5960;DHT22;3006;50.956;7.002;2022-10-03T20:02:22;14.20;99.90
5960;DHT22;3006;50.956;7.002;2022-10-03T20:04:53;14.20;99.90
5960;DHT22;3006;50.956;7.002;2022-10-03T20:07:33;14.20;99.90
5960;DHT22;3006;50.956;7.002;2022-10-03T20:13:09;14.20;99.90
5960;DHT22;3006;50.956;7.002;2022-10-03T20:15:42;14.20;99.90
5960;DHT22;3006;50.956;7.002;2022-10-03T20:18:18;14.40;99.90
5960;DHT22;3006;50.956;7.002;2022-10-03T20:20:49;14.50;99.90
5960;DHT22;3006;50.956;7.002;2022-10-03T20:23:21;14.50;99.90
5960;DHT22;3006;50.956;7.002;2022-10-03T20:25:53;14.40;99.90
5960;DHT22;3006;50.956;7.002;2022-10-03T20:28:29;14.20;99.90
5960;DHT22;3006;50.956;7.002;2022-10-03T20:31:00;14.20;99.90
5960;DHT22;3006;50.956;7.002;2022-10-03T20:33:30;14.10;99.90